^^
B2 Weather Station Historical Data
Daily Summary for November 4, 2017 Units:  English    Metric   Both
« Previous Day
Next Day »
Daily Weekly Monthly Yearly Custom
  High: Low: Average:
Temperature: 57.1 °F 37.5 °F 46.8 °F
Dew Point: 56.0 °F 35.2 °F 45.1 °F
Humidity: 96 % 89 % 94 %
Wind Speed: 15.0 mph 0.0 mph 3.2 mph
Wind Gust: 15.0 mph - -
Wind:- - ESE
Pressure: 30.23 in 29.83 in -
Precipitation: 0.13 in    
Historical Graphs
 
 
Tabular Data for November 4, 2017
Time Temperature Dew Point Pressure Wind Wind Speed Wind Gust Humidity Rainfall Rate (Hourly) solar Conditions
00:02 40.4 °F 37.4 °F 30.21 in NE 5.8 mph 5.8 mph 89 % 0.00 in 0.0 W/m2 CLR
00:07 40.3 °F 37.3 °F 30.21 in NE 4.6 mph 4.6 mph 89 % 0.00 in 0.0 W/m2 CLR
00:12 40.3 °F 37.3 °F 30.22 in NE 4.6 mph 4.6 mph 89 % 0.00 in 0.0 W/m2 CLR
00:17 40.1 °F 37.1 °F 30.22 in NE 5.0 mph 5.0 mph 89 % 0.00 in 0.0 W/m2 CLR
00:22 39.9 °F 36.9 °F 30.23 in NE 4.6 mph 4.6 mph 89 % 0.00 in 0.0 W/m2 CLR
00:27 39.8 °F 37.1 °F 30.22 in NE 3.5 mph 3.5 mph 90 % 0.00 in 0.0 W/m2 CLR
00:32 39.7 °F 37.0 °F 30.22 in NE 3.5 mph 3.5 mph 90 % 0.00 in 0.0 W/m2 CLR
00:37 39.5 °F 36.8 °F 30.22 in Calm     90 % 0.00 in 0.0 W/m2 CLR
00:42 39.5 °F 36.8 °F 30.22 in NE 3.5 mph 3.5 mph 90 % 0.00 in 0.0 W/m2 CLR
00:47 39.4 °F 36.7 °F 30.23 in NE 3.5 mph 3.5 mph 90 % 0.00 in 0.0 W/m2 CLR
00:52 39.3 °F 36.9 °F 30.23 in Calm     91 % 0.00 in 0.0 W/m2 CLR
00:57 39.2 °F 36.5 °F 30.22 in NE 2.3 mph 2.3 mph 90 % 0.00 in 0.0 W/m2 CLR
01:02 39.1 °F 36.7 °F 30.22 in Calm     91 % 0.00 in 0.0 W/m2 CLR
01:07 39.0 °F 36.6 °F 30.22 in Calm     91 % 0.00 in 0.0 W/m2 CLR
01:12 38.9 °F 36.5 °F 30.22 in NE 2.3 mph 2.3 mph 91 % 0.00 in 0.0 W/m2 CLR
01:17 38.9 °F 36.5 °F 30.23 in Calm     91 % 0.00 in 0.0 W/m2 CLR
01:22 38.8 °F 36.4 °F 30.22 in Calm     91 % 0.00 in 0.0 W/m2 CLR
01:27 38.6 °F 36.2 °F 30.22 in Calm     91 % 0.00 in 0.0 W/m2 CLR
01:32 38.3 °F 35.9 °F 30.22 in Calm     91 % 0.00 in 0.0 W/m2 CLR
01:37 38.0 °F 35.6 °F 30.22 in Calm     91 % 0.00 in 0.0 W/m2 CLR
01:42 37.8 °F 35.4 °F 30.22 in Calm     91 % 0.00 in 0.0 W/m2 CLR
01:47 37.6 °F 35.2 °F 30.21 in NE 1.2 mph   91 % 0.00 in 0.0 W/m2 CLR
01:52 37.5 °F 35.4 °F 30.21 in NE 1.2 mph   92 % 0.00 in 0.0 W/m2 CLR
01:57 37.5 °F 35.4 °F 30.21 in Calm     92 % 0.00 in 0.0 W/m2 CLR
02:02 37.5 °F 35.4 °F 30.20 in NE 3.5 mph 3.5 mph 92 % 0.00 in 0.0 W/m2 CLR
02:07 37.7 °F 35.9 °F 30.20 in Calm     93 % 0.00 in 0.0 W/m2 CLR
02:12 37.8 °F 35.7 °F 30.20 in NE 2.3 mph 2.3 mph 92 % 0.00 in 0.0 W/m2 CLR
02:17 37.8 °F 35.7 °F 30.20 in NE 2.3 mph 2.3 mph 92 % 0.00 in 0.0 W/m2 CLR
02:22 37.8 °F 36.0 °F 30.19 in NE 5.8 mph 5.8 mph 93 % 0.00 in 0.0 W/m2 CLR
02:27 38.0 °F 36.2 °F 30.19 in NE 5.8 mph 5.8 mph 93 % 0.00 in 0.0 W/m2 CLR
02:32 38.2 °F 36.4 °F 30.19 in NE 4.6 mph 4.6 mph 93 % 0.00 in 0.0 W/m2 CLR
02:37 38.2 °F 36.4 °F 30.19 in NE 4.6 mph 4.6 mph 93 % 0.00 in 0.0 W/m2 CLR
02:42 38.2 °F 36.1 °F 30.19 in NE 2.3 mph 2.3 mph 92 % 0.00 in 0.0 W/m2 CLR
02:47 38.0 °F 35.9 °F 30.19 in Calm     92 % 0.00 in 0.0 W/m2 CLR
02:52 38.0 °F 35.9 °F 30.19 in NE 3.5 mph 3.5 mph 92 % 0.00 in 0.0 W/m2 CLR
02:57 37.9 °F 36.1 °F 30.18 in NE 2.3 mph 2.3 mph 93 % 0.00 in 0.0 W/m2 CLR
03:02 37.9 °F 36.1 °F 30.18 in NE 3.5 mph 3.5 mph 93 % 0.00 in 0.0 W/m2 CLR
03:07 37.9 °F 36.1 °F 30.17 in NE 3.5 mph 3.5 mph 93 % 0.00 in 0.0 W/m2 CLR
03:12 37.9 °F 36.1 °F 30.17 in Calm     93 % 0.00 in 0.0 W/m2 CLR
03:17 38.0 °F 36.2 °F 30.17 in NE 4.0 mph 4.0 mph 93 % 0.00 in 0.0 W/m2 CLR
03:22 38.3 °F 36.5 °F 30.17 in NE 4.6 mph 4.6 mph 93 % 0.00 in 0.0 W/m2 CLR
03:27 38.4 °F 36.6 °F 30.16 in NE 5.8 mph 5.8 mph 93 % 0.00 in 0.0 W/m2 CLR
03:32 38.5 °F 36.7 °F 30.16 in NE 5.8 mph 5.8 mph 93 % 0.00 in 0.0 W/m2 CLR
03:37 38.7 °F 36.9 °F 30.15 in NE 8.1 mph 8.1 mph 93 % 0.00 in 0.0 W/m2 CLR
03:42 38.9 °F 37.0 °F 30.14 in ENE 11.5 mph 11.5 mph 93 % 0.00 in 0.0 W/m2 CLR
03:47 39.3 °F 37.7 °F 30.13 in East 10.0 mph 10.0 mph 94 % 0.00 in 0.0 W/m2 CLR
03:52 39.6 °F 37.7 °F 30.12 in East 11.5 mph 11.5 mph 93 % 0.00 in 0.0 W/m2 CLR
03:57 39.8 °F 37.9 °F 30.12 in East 12.7 mph 12.7 mph 93 % 0.00 in 0.0 W/m2 CLR
04:02 40.0 °F 38.1 °F 30.12 in East 15.0 mph 15.0 mph 93 % 0.00 in 0.0 W/m2 CLR
04:07 40.1 °F 38.2 °F 30.12 in ESE 12.7 mph 12.7 mph 93 % 0.00 in 0.0 W/m2 CLR
04:12 40.3 °F 38.2 °F 30.12 in ESE 8.1 mph 8.1 mph 92 % 0.00 in 0.0 W/m2 CLR
04:17 40.3 °F 38.2 °F 30.12 in ESE 10.4 mph 10.4 mph 92 % 0.00 in 0.0 W/m2 CLR
04:22 40.4 °F 38.3 °F 30.12 in ESE 10.4 mph 10.4 mph 92 % 0.00 in 0.0 W/m2 CLR
04:27 40.4 °F 38.3 °F 30.12 in ESE 9.2 mph 9.2 mph 92 % 0.00 in 0.0 W/m2 CLR
04:32 40.5 °F 38.4 °F 30.11 in ESE 10.4 mph 10.4 mph 92 % 0.00 in 0.0 W/m2 CLR
04:37 40.6 °F 38.5 °F 30.11 in ESE 9.2 mph 9.2 mph 92 % 0.00 in 0.0 W/m2 CLR
04:42 40.8 °F 38.7 °F 30.11 in ESE 11.5 mph 11.5 mph 92 % 0.00 in 0.0 W/m2 CLR
04:47 41.0 °F 38.6 °F 30.11 in ESE 13.8 mph 13.8 mph 91 % 0.00 in 0.0 W/m2 CLR
04:52 41.2 °F 38.8 °F 30.11 in ESE 8.1 mph 8.1 mph 91 % 0.00 in 0.0 W/m2 CLR
04:57 41.4 °F 39.0 °F 30.11 in ESE 8.1 mph 8.1 mph 91 % 0.00 in 0.0 W/m2 CLR
05:02 41.6 °F 39.2 °F 30.12 in ESE 4.6 mph 4.6 mph 91 % 0.00 in 0.0 W/m2 SCT
05:07 41.7 °F 39.3 °F 30.11 in ESE 9.2 mph 9.2 mph 91 % 0.00 in 0.0 W/m2 SCT
05:12 41.9 °F 39.2 °F 30.11 in ESE 9.0 mph 9.0 mph 90 % 0.00 in 0.0 W/m2 SCT
05:17 41.9 °F 39.2 °F 30.10 in ESE 10.4 mph 10.4 mph 90 % 0.00 in 0.0 W/m2 SCT
05:22 41.9 °F 39.2 °F 30.11 in ESE 10.4 mph 10.4 mph 90 % 0.00 in 0.0 W/m2 SCT
05:27 41.9 °F 39.2 °F 30.10 in ESE 8.1 mph 8.1 mph 90 % 0.00 in 0.0 W/m2 SCT
05:32 41.9 °F 39.2 °F 30.09 in ESE 10.4 mph 10.4 mph 90 % 0.00 in 0.0 W/m2 OVC
05:37 41.8 °F 39.1 °F 30.08 in ESE 9.2 mph 9.2 mph 90 % 0.00 in 0.0 W/m2 OVC
05:42 41.8 °F 39.1 °F 30.09 in ESE 10.4 mph 10.4 mph 90 % 0.00 in 0.0 W/m2 OVC
05:47 41.8 °F 39.1 °F 30.09 in ESE 10.4 mph 10.4 mph 90 % 0.00 in 0.0 W/m2 OVC
05:52 41.9 °F 39.2 °F 30.09 in ESE 11.5 mph 11.5 mph 90 % 0.00 in 0.0 W/m2 OVC
05:57 42.0 °F 39.3 °F 30.08 in ESE 9.2 mph 9.2 mph 90 % 0.00 in 0.0 W/m2 OVC
06:02 42.1 °F 39.4 °F 30.08 in ESE 10.4 mph 10.4 mph 90 % 0.00 in 0.0 W/m2 OVC
06:07 42.2 °F 39.5 °F 30.07 in ESE 10.4 mph 10.4 mph 90 % 0.00 in 0.0 W/m2 OVC
06:12 42.3 °F 39.6 °F 30.07 in ESE 8.1 mph 8.1 mph 90 % 0.00 in 0.0 W/m2 OVC
06:17 42.3 °F 39.6 °F 30.06 in ESE 10.4 mph 10.4 mph 90 % 0.00 in 0.0 W/m2 OVC
06:18 42.3 °F 39.6 °F 30.06 in ESE 10.4 mph 10.4 mph 90 % 0.00 in 0.0 W/m2 OVC
06:23 42.3 °F 39.6 °F 30.06 in ESE 7.0 mph 7.0 mph 90 % 0.00 in 0.0 W/m2 OVC
06:28 42.4 °F 39.7 °F 30.07 in ESE 6.9 mph 6.9 mph 90 % 0.00 in 0.0 W/m2 OVC
06:33 42.4 °F 39.7 °F 30.06 in ESE 8.1 mph 8.1 mph 90 % 0.00 in 0.0 W/m2 OVC
06:38 42.5 °F 39.8 °F 30.06 in ESE 11.5 mph 11.5 mph 90 % 0.00 in 0.0 W/m2 OVC
06:43 42.6 °F 39.9 °F 30.05 in ESE 8.1 mph 8.1 mph 90 % 0.00 in 0.0 W/m2 OVC
06:48 42.7 °F 40.0 °F 30.05 in ESE 10.4 mph 10.4 mph 90 % 0.00 in 0.0 W/m2 OVC
06:53 42.8 °F 40.1 °F 30.06 in ESE 9.2 mph 9.2 mph 90 % 0.00 in 0.0 W/m2 OVC
06:58 42.8 °F 40.1 °F 30.06 in ESE 9.2 mph 9.2 mph 90 % 0.00 in 0.0 W/m2 OVC
07:03 42.9 °F 40.2 °F 30.06 in ESE 9.2 mph 9.2 mph 90 % 0.00 in 0.0 W/m2 OVC
07:08 43.0 °F 40.3 °F 30.06 in ESE 8.0 mph 8.0 mph 90 % 0.00 in 0.0 W/m2 OVC
07:18 43.2 °F 40.5 °F 30.05 in SE 9.2 mph 9.2 mph 90 % 0.00 in 0.0 W/m2 OVC
07:23 43.4 °F 40.7 °F 30.04 in SE 9.2 mph 9.2 mph 90 % 0.00 in 0.0 W/m2 OVC
07:28 43.5 °F 40.8 °F 30.04 in SE 10.4 mph 10.4 mph 90 % 0.00 in 0.0 W/m2 OVC
07:33 43.6 °F 40.9 °F 30.04 in SE 9.2 mph 9.2 mph 90 % 0.00 in 0.0 W/m2 OVC
07:38 43.7 °F 41.0 °F 30.04 in SE 9.2 mph 9.2 mph 90 % 0.00 in 0.0 W/m2 OVC
07:43 43.8 °F 41.1 °F 30.03 in SE 9.2 mph 9.2 mph 90 % 0.00 in 5.0 W/m2 OVC
07:48 43.8 °F 41.1 °F 30.02 in SE 6.9 mph 6.9 mph 90 % 0.00 in 0.0 W/m2 OVC
07:53 43.8 °F 41.3 °F 30.02 in SE 11.5 mph 11.5 mph 91 % 0.00 in 0.0 W/m2 OVC
07:58 43.8 °F 41.3 °F 30.02 in SE 10.4 mph 10.4 mph 91 % 0.00 in 0.0 W/m2 OVC
08:03 43.8 °F 41.3 °F 30.02 in SE 8.1 mph 8.1 mph 91 % 0.00 in 5.0 W/m2 OVC
08:08 43.8 °F 41.3 °F 30.02 in SE 11.5 mph 11.5 mph 91 % 0.00 in 5.0 W/m2 OVC
08:13 43.9 °F 41.4 °F 30.03 in SE 8.1 mph 8.1 mph 91 % 0.00 in 11.0 W/m2 OVC
08:18 43.9 °F 41.4 °F 30.03 in SE 10.4 mph 10.4 mph 91 % 0.00 in 12.0 W/m2 OVC
08:22 44.0 °F 41.5 °F 30.03 in SE 6.9 mph 6.9 mph 91 % 0.00 in 9.0 W/m2 OVC
08:28 44.0 °F 41.5 °F 30.02 in SE 10.4 mph 10.4 mph 91 % 0.00 in 16.0 W/m2 OVC
08:33 44.1 °F 41.6 °F 30.02 in SE 13.0 mph 13.0 mph 91 % 0.00 in 30.0 W/m2 OVC
08:38 44.1 °F 41.9 °F 30.02 in SE 11.5 mph 11.5 mph 92 % 0.00 in 37.0 W/m2 OVC
08:43 44.1 °F 41.9 °F 30.01 in SE 8.1 mph 8.1 mph 92 % 0.00 in 49.0 W/m2 OVC
08:48 44.1 °F 42.2 °F 30.01 in SE 8.1 mph 8.1 mph 93 % 0.00 in 44.0 W/m2 OVC
08:53 44.2 °F 42.3 °F 30.02 in SE 6.9 mph 6.9 mph 93 % 0.00 in 35.0 W/m2 OVC
08:58 44.2 °F 42.3 °F 30.02 in SE 10.4 mph 10.4 mph 93 % 0.00 in 16.0 W/m2 OVC
09:03 44.2 °F 42.3 °F 30.01 in SE 10.4 mph 10.4 mph 93 % 0.00 in 35.0 W/m2 OVC
09:08 44.2 °F 42.3 °F 30.01 in SE 11.5 mph 11.5 mph 93 % 0.00 in 37.0 W/m2 OVC
09:13 44.3 °F 42.4 °F 30.01 in SE 11.5 mph 11.5 mph 93 % 0.00 in 37.0 W/m2 OVC
09:18 44.2 °F 42.6 °F 30.02 in SE 9.2 mph 9.2 mph 94 % 0.00 in 23.0 W/m2 OVC
09:23 44.2 °F 42.6 °F 30.00 in SE 9.2 mph 9.2 mph 94 % 0.00 in 33.0 W/m2 OVC
09:25 44.2 °F 42.6 °F 30.00 in SE 10.4 mph 10.4 mph 94 % 0.00 in 33.0 W/m2 OVC
09:30 44.3 °F 42.7 °F 30.01 in SE 10.4 mph 10.4 mph 94 % 0.00 in 46.0 W/m2 OVC
09:35 44.4 °F 42.8 °F 30.01 in SE 6.9 mph 6.9 mph 94 % 0.00 in 23.0 W/m2 OVC
09:40 44.4 °F 42.8 °F 30.01 in SE 7.0 mph 7.0 mph 94 % 0.00 in 54.0 W/m2 OVC
09:45 44.6 °F 43.0 °F 30.01 in SE 9.2 mph 9.2 mph 94 % 0.00 in 49.0 W/m2 OVC
09:50 44.7 °F 43.1 °F 30.01 in SE 10.4 mph 10.4 mph 94 % 0.00 in 26.0 W/m2 OVC
09:55 44.7 °F 43.1 °F 30.01 in Calm     94 % 0.00 in 28.0 W/m2 OVC
10:00 44.8 °F 43.2 °F 30.01 in SE 6.9 mph 6.9 mph 94 % 0.00 in 32.0 W/m2 OVC
10:05 44.9 °F 43.3 °F 30.00 in SE 6.9 mph 6.9 mph 94 % 0.00 in 25.0 W/m2 OVC
10:10 44.9 °F 43.3 °F 30.00 in SE 2.3 mph 2.3 mph 94 % 0.00 in 23.0 W/m2 OVC
10:15 45.0 °F 43.7 °F 30.00 in SE 5.8 mph 5.8 mph 95 % 0.00 in 54.0 W/m2 OVC
10:20 45.2 °F 43.9 °F 29.99 in SE 10.4 mph 10.4 mph 95 % 0.00 in 35.0 W/m2 OVC
10:25 45.2 °F 43.9 °F 29.99 in SE 8.0 mph 8.0 mph 95 % 0.00 in 33.0 W/m2 OVC
10:30 45.3 °F 44.0 °F 29.99 in SE 10.4 mph 10.4 mph 95 % 0.00 in 60.0 W/m2 OVC
10:35 45.4 °F 44.1 °F 30.01 in SSE 5.0 mph 5.0 mph 95 % 0.01 in 21.0 W/m2 -RA
10:40 45.5 °F 44.2 °F 30.03 in NW 9.2 mph   95 % 0.02 in 21.0 W/m2 -RA
10:45 45.5 °F 44.2 °F 30.03 in Calm     95 % 0.07 in 5.0 W/m2 -RA
10:50 45.5 °F 44.2 °F 30.01 in Calm     95 % 0.09 in 65.0 W/m2 RA
10:55 45.6 °F 44.3 °F 30.02 in Calm     95 % 0.11 in 26.0 W/m2 RA
11:00 45.7 °F 44.4 °F 30.01 in Calm     95 % 0.12 in 76.0 W/m2 RA
11:05 45.9 °F 44.5 °F 30.01 in Calm     95 % 0.12 in 26.0 W/m2 +RA
11:10 45.8 °F 44.4 °F 30.00 in Calm     95 % 0.12 in 39.0 W/m2 +RA
11:15 45.9 °F 44.5 °F 30.01 in Calm     95 % 0.12 in 35.0 W/m2 +RA
11:16 45.9 °F 44.5 °F 30.01 in Calm     95 % 0.12 in 30.0 W/m2 +RA
11:21 46.0 °F 44.6 °F 30.00 in Calm     95 % 0.12 in 40.0 W/m2 +RA
11:26 46.0 °F 44.9 °F 30.00 in Calm     96 % 0.12 in 77.0 W/m2 +RA
11:31 45.9 °F 44.8 °F 30.00 in Calm     96 % 0.12 in 39.0 W/m2 +RA
11:36 45.9 °F 44.8 °F 29.99 in Calm     96 % 0.11 in 47.0 W/m2 +RA
11:41 45.8 °F 44.4 °F 29.99 in Calm     95 % 0.09 in 65.0 W/m2 OVC
11:46 46.0 °F 44.9 °F 29.99 in Calm     96 % 0.05 in 56.0 W/m2 OVC
11:51 45.9 °F 44.8 °F 29.99 in Calm     96 % 0.03 in 42.0 W/m2 OVC
11:56 46.0 °F 44.6 °F 29.99 in Calm     95 % 0.01 in 58.0 W/m2 OVC
12:01 46.1 °F 45.0 °F 29.99 in Calm     96 % 0.00 in 47.0 W/m2 -DZ
12:06 46.0 °F 44.9 °F 29.98 in Calm     96 % 0.00 in 62.0 W/m2 -DZ
12:11 46.1 °F 45.0 °F 29.98 in Calm     96 % 0.00 in 51.0 W/m2 -DZ
12:16 46.1 °F 45.0 °F 29.98 in Calm     96 % 0.00 in 49.0 W/m2 -DZ
12:21 46.2 °F 45.1 °F 29.97 in Calm     96 % 0.00 in 56.0 W/m2 -DZ
12:26 46.3 °F 45.2 °F 29.96 in Calm     96 % 0.00 in 60.0 W/m2 -DZ
12:31 46.5 °F 45.4 °F 29.96 in Calm     96 % 0.00 in 72.0 W/m2 -DZ
12:36 46.6 °F 45.5 °F 29.95 in Calm     96 % 0.00 in 54.0 W/m2 -DZ
12:41 46.5 °F 45.4 °F 29.95 in Calm     96 % 0.00 in 51.0 W/m2 -DZ
12:46 46.7 °F 45.6 °F 29.95 in Calm     96 % 0.00 in 65.0 W/m2 -DZ
12:51 46.8 °F 45.7 °F 29.95 in Calm     96 % 0.00 in 60.0 W/m2 OVC
12:56 46.8 °F 45.7 °F 29.95 in Calm     96 % 0.00 in 40.0 W/m2 OVC
13:01 46.8 °F 45.7 °F 29.94 in Calm     96 % 0.00 in 47.0 W/m2 OVC
13:06 46.9 °F 45.8 °F 29.94 in Calm     96 % 0.00 in 49.0 W/m2 OVC
13:11 46.8 °F 45.7 °F 29.94 in Calm     96 % 0.00 in 42.0 W/m2 OVC
13:16 46.8 °F 45.7 °F 29.94 in Calm     96 % 0.00 in 46.0 W/m2 OVC
13:21 46.9 °F 45.8 °F 29.94 in Calm     96 % 0.00 in 44.0 W/m2 OVC
13:26 46.9 °F 45.8 °F 29.94 in Calm     96 % 0.00 in 42.0 W/m2 OVC
13:31 46.9 °F 45.8 °F 29.93 in Calm     96 % 0.00 in 44.0 W/m2 OVC
13:36 47.0 °F 45.9 °F 29.93 in Calm     96 % 0.01 in 46.0 W/m2 RA
13:41 47.0 °F 45.9 °F 29.93 in Calm     96 % 0.01 in 47.0 W/m2 RA
13:46 47.1 °F 46.0 °F 29.93 in Calm     96 % 0.01 in 63.0 W/m2 OVC
13:51 47.2 °F 46.1 °F 29.93 in Calm     96 % 0.01 in 47.0 W/m2 OVC
13:57 47.3 °F 46.2 °F 29.93 in Calm     96 % 0.01 in 49.0 W/m2 OVC
14:01 47.4 °F 46.3 °F 29.93 in Calm     96 % 0.01 in 39.0 W/m2 OVC
14:06 47.6 °F 46.5 °F 29.92 in Calm     96 % 0.01 in 49.0 W/m2 OVC
14:11 47.6 °F 46.5 °F 29.92 in Calm     96 % 0.01 in 40.0 W/m2 OVC
14:16 47.7 °F 46.6 °F 29.92 in Calm     96 % 0.01 in 39.0 W/m2 OVC
14:21 47.7 °F 46.6 °F 29.92 in Calm     96 % 0.01 in 39.0 W/m2 OVC
14:26 47.8 °F 46.7 °F 29.92 in Calm     96 % 0.01 in 40.0 W/m2 OVC
14:31 47.9 °F 46.8 °F 29.92 in Calm     96 % 0.01 in 33.0 W/m2 OVC
14:36 48.1 °F 47.0 °F 29.92 in Calm     96 % 0.00 in 37.0 W/m2 OVC
14:41 48.1 °F 47.0 °F 29.92 in Calm     96 % 0.00 in 44.0 W/m2 OVC
14:46 48.2 °F 47.1 °F 29.91 in Calm     96 % 0.00 in 40.0 W/m2 OVC
14:47 48.2 °F 47.1 °F 29.91 in Calm     96 % 0.00 in 40.0 W/m2 OVC
14:52 48.4 °F 47.3 °F 29.91 in Calm     96 % 0.00 in 44.0 W/m2 OVC
14:57 48.3 °F 47.2 °F 29.92 in Calm     96 % 0.00 in 30.0 W/m2 OVC
15:02 48.3 °F 47.2 °F 29.92 in Calm     96 % 0.00 in 28.0 W/m2 OVC
15:07 48.3 °F 47.2 °F 29.91 in Calm     96 % 0.00 in 32.0 W/m2 OVC
15:12 48.3 °F 47.2 °F 29.92 in Calm     96 % 0.00 in 32.0 W/m2 OVC
15:17 48.3 °F 47.2 °F 29.91 in Calm     96 % 0.00 in 28.0 W/m2 OVC
15:22 48.4 °F 47.3 °F 29.91 in Calm     96 % 0.00 in 25.0 W/m2 OVC
15:27 48.5 °F 47.4 °F 29.91 in Calm     96 % 0.00 in 28.0 W/m2 OVC
15:32 48.5 °F 47.4 °F 29.91 in Calm     96 % 0.00 in 23.0 W/m2 OVC
15:37 48.4 °F 47.3 °F 29.91 in Calm     96 % 0.00 in 30.0 W/m2 OVC
15:42 48.4 °F 47.3 °F 29.91 in Calm     96 % 0.00 in 30.0 W/m2 OVC
15:47 48.5 °F 47.4 °F 29.91 in Calm     96 % 0.00 in 32.0 W/m2 OVC
15:52 48.6 °F 47.5 °F 29.91 in Calm     96 % 0.00 in 35.0 W/m2 OVC
15:57 48.7 °F 47.6 °F 29.91 in Calm     96 % 0.00 in 28.0 W/m2 OVC
16:02 48.7 °F 47.6 °F 29.91 in Calm     96 % 0.00 in 19.0 W/m2 OVC
16:07 48.8 °F 47.7 °F 29.90 in Calm     96 % 0.00 in 23.0 W/m2 OVC
16:12 48.9 °F 47.8 °F 29.90 in Calm     96 % 0.00 in 11.0 W/m2 OVC
16:17 48.9 °F 47.8 °F 29.90 in Calm     96 % 0.00 in 19.0 W/m2 OVC
16:22 49.0 °F 47.9 °F 29.90 in Calm     96 % 0.00 in 21.0 W/m2 OVC
16:27 49.1 °F 48.0 °F 29.90 in Calm     96 % 0.00 in 26.0 W/m2 OVC
16:32 49.2 °F 48.1 °F 29.90 in Calm     96 % 0.00 in 19.0 W/m2 OVC
16:37 49.3 °F 48.2 °F 29.90 in Calm     96 % 0.00 in 25.0 W/m2 OVC
16:42 49.4 °F 48.3 °F 29.89 in Calm     96 % 0.00 in 35.0 W/m2 OVC
16:47 49.6 °F 48.5 °F 29.89 in NNW 3.5 mph 3.5 mph 96 % 0.00 in 25.0 W/m2 OVC
16:52 49.7 °F 48.6 °F 29.89 in Calm     96 % 0.00 in 14.0 W/m2 OVC
16:57 49.7 °F 48.6 °F 29.90 in Calm     96 % 0.00 in 9.0 W/m2 OVC
17:02 49.8 °F 48.7 °F 29.90 in Calm     96 % 0.00 in 7.0 W/m2 OVC
17:07 49.9 °F 48.8 °F 29.90 in Calm     96 % 0.00 in 5.0 W/m2 OVC
17:12 49.9 °F 48.8 °F 29.90 in Calm     96 % 0.00 in 0.0 W/m2 OVC
17:17 50.0 °F 48.9 °F 29.90 in Calm     96 % 0.00 in 5.0 W/m2 OVC
17:22 50.0 °F 48.9 °F 29.90 in Calm     96 % 0.00 in 0.0 W/m2 OVC
17:27 50.1 °F 49.0 °F 29.90 in Calm     96 % 0.00 in 0.0 W/m2 OVC
17:32 50.2 °F 49.1 °F 29.90 in Calm     96 % 0.00 in 0.0 W/m2 OVC
17:37 50.3 °F 49.2 °F 29.90 in Calm     96 % 0.00 in 0.0 W/m2 OVC
17:42 50.4 °F 49.3 °F 29.90 in Calm     96 % 0.00 in 0.0 W/m2 OVC
17:47 50.5 °F 49.4 °F 29.90 in Calm     96 % 0.00 in 0.0 W/m2 OVC
17:52 50.5 °F 49.4 °F 29.90 in Calm     96 % 0.00 in 0.0 W/m2 OVC
17:57 50.6 °F 49.5 °F 29.90 in Calm     96 % 0.00 in 0.0 W/m2 OVC
18:02 50.7 °F 49.6 °F 29.90 in Calm     96 % 0.00 in 0.0 W/m2 OVC
18:07 50.8 °F 49.7 °F 29.90 in Calm     96 % 0.00 in 0.0 W/m2 OVC
18:12 50.9 °F 49.8 °F 29.90 in Calm     96 % 0.00 in 0.0 W/m2 OVC
18:17 51.0 °F 49.9 °F 29.90 in Calm     96 % 0.00 in 0.0 W/m2 OVC
18:22 51.2 °F 50.1 °F 29.90 in Calm     96 % 0.00 in 0.0 W/m2 OVC
18:27 51.3 °F 50.2 °F 29.90 in Calm     96 % 0.00 in 0.0 W/m2 OVC
18:32 51.5 °F 50.4 °F 29.90 in Calm     96 % 0.00 in 0.0 W/m2 OVC
18:37 51.6 °F 50.5 °F 29.90 in Calm     96 % 0.00 in 0.0 W/m2 OVC
18:42 51.8 °F 50.7 °F 29.89 in Calm     96 % 0.00 in 0.0 W/m2 OVC
18:47 51.9 °F 50.8 °F 29.89 in Calm     96 % 0.00 in 0.0 W/m2 OVC
18:52 52.1 °F 51.0 °F 29.89 in Calm     96 % 0.00 in 0.0 W/m2 OVC
18:57 52.3 °F 51.2 °F 29.89 in Calm     96 % 0.00 in 0.0 W/m2 OVC
19:02 52.4 °F 51.3 °F 29.89 in Calm     96 % 0.00 in 0.0 W/m2 OVC
19:07 52.5 °F 51.4 °F 29.88 in Calm     96 % 0.00 in 0.0 W/m2 OVC
19:12 52.6 °F 51.5 °F 29.88 in Calm     96 % 0.00 in 0.0 W/m2 OVC
19:14 52.6 °F 51.5 °F 29.88 in Calm     96 % 0.00 in 0.0 W/m2 OVC
19:19 52.8 °F 51.7 °F 29.88 in Calm     96 % 0.00 in 0.0 W/m2 OVC
19:24 52.9 °F 51.8 °F 29.88 in Calm     96 % 0.00 in 0.0 W/m2 OVC
19:29 53.1 °F 52.0 °F 29.88 in Calm     96 % 0.00 in 0.0 W/m2 OVC
19:34 53.2 °F 52.1 °F 29.88 in Calm     96 % 0.00 in 0.0 W/m2 OVC
19:39 53.4 °F 52.3 °F 29.88 in Calm     96 % 0.00 in 0.0 W/m2 OVC
19:44 53.8 °F 52.7 °F 29.88 in Calm     96 % 0.00 in 0.0 W/m2 OVC
19:49 54.2 °F 53.1 °F 29.88 in NNW 4.6 mph 4.6 mph 96 % 0.00 in 0.0 W/m2 OVC
19:54 54.4 °F 53.3 °F 29.87 in Calm     96 % 0.00 in 0.0 W/m2 OVC
19:59 54.6 °F 53.5 °F 29.87 in NNW 2.3 mph   96 % 0.00 in 0.0 W/m2 OVC
20:04 54.8 °F 53.7 °F 29.88 in Calm     96 % 0.00 in 0.0 W/m2 OVC
20:08 54.8 °F 53.7 °F 29.88 in NNW 5.8 mph 5.8 mph 96 % 0.00 in 0.0 W/m2 OVC
20:13 54.9 °F 53.8 °F 29.88 in Calm     96 % 0.00 in 0.0 W/m2 OVC
20:18 55.0 °F 53.9 °F 29.88 in Calm     96 % 0.00 in 0.0 W/m2 OVC
20:23 55.1 °F 54.0 °F 29.88 in Calm     96 % 0.00 in 0.0 W/m2 OVC
20:28 55.1 °F 54.0 °F 29.87 in Calm     96 % 0.00 in 0.0 W/m2 OVC
20:33 55.2 °F 54.1 °F 29.87 in Calm     96 % 0.00 in 0.0 W/m2 OVC
20:38 55.2 °F 54.1 °F 29.87 in Calm     96 % 0.00 in 0.0 W/m2 OVC
20:43 55.3 °F 54.2 °F 29.87 in Calm     96 % 0.00 in 0.0 W/m2 OVC
20:48 55.4 °F 54.3 °F 29.87 in Calm     96 % 0.00 in 0.0 W/m2 OVC
20:53 55.4 °F 54.3 °F 29.87 in Calm     96 % 0.00 in 0.0 W/m2 OVC
20:58 55.3 °F 54.2 °F 29.87 in Calm     96 % 0.00 in 0.0 W/m2 OVC
21:03 55.3 °F 54.2 °F 29.86 in Calm     96 % 0.00 in 0.0 W/m2 OVC
21:08 55.2 °F 54.1 °F 29.86 in Calm     96 % 0.00 in 0.0 W/m2 OVC
21:13 55.2 °F 54.1 °F 29.86 in Calm     96 % 0.00 in 0.0 W/m2 OVC
21:18 55.2 °F 54.1 °F 29.86 in Calm     96 % 0.00 in 0.0 W/m2 OVC
21:23 55.2 °F 54.1 °F 29.86 in Calm     96 % 0.00 in 0.0 W/m2 OVC
21:28 55.2 °F 54.1 °F 29.86 in Calm     96 % 0.00 in 0.0 W/m2 OVC
21:33 55.2 °F 54.1 °F 29.86 in Calm     96 % 0.00 in 0.0 W/m2 OVC
21:38 55.2 °F 54.1 °F 29.86 in Calm     96 % 0.00 in 0.0 W/m2 OVC
21:43 55.4 °F 54.3 °F 29.86 in Calm     96 % 0.00 in 0.0 W/m2 OVC
21:48 55.5 °F 54.4 °F 29.86 in Calm     96 % 0.00 in 0.0 W/m2 OVC
21:53 55.7 °F 54.6 °F 29.86 in Calm     96 % 0.00 in 0.0 W/m2 OVC
21:58 55.8 °F 54.7 °F 29.86 in NNW 3.5 mph 3.5 mph 96 % 0.00 in 0.0 W/m2 OVC
22:03 56.0 °F 54.9 °F 29.86 in Calm     96 % 0.00 in 0.0 W/m2 OVC
22:08 56.1 °F 55.0 °F 29.86 in Calm     96 % 0.00 in 0.0 W/m2 OVC
22:13 56.2 °F 55.1 °F 29.85 in Calm     96 % 0.00 in 0.0 W/m2 OVC
22:19 56.2 °F 55.1 °F 29.85 in Calm     96 % 0.00 in 0.0 W/m2 OVC
22:20 56.2 °F 55.1 °F 29.85 in Calm     96 % 0.00 in 0.0 W/m2 OVC
22:22 56.2 °F 55.1 °F 29.85 in Calm     96 % 0.00 in 0.0 W/m2 OVC
22:27 56.2 °F 55.1 °F 29.86 in Calm     96 % 0.00 in 0.0 W/m2 OVC
22:32 56.3 °F 55.2 °F 29.85 in Calm     96 % 0.00 in 0.0 W/m2 OVC
22:34 56.4 °F 55.3 °F 29.86 in Calm     96 % 0.00 in 0.0 W/m2 OVC
22:39 56.4 °F 55.3 °F 29.85 in Calm     96 % 0.00 in 0.0 W/m2 OVC
22:44 56.5 °F 55.4 °F 29.85 in Calm     96 % 0.00 in 0.0 W/m2 OVC
22:49 56.6 °F 55.5 °F 29.85 in Calm     96 % 0.00 in 0.0 W/m2 OVC
22:54 56.7 °F 55.6 °F 29.84 in Calm     96 % 0.00 in 0.0 W/m2 OVC
22:59 56.7 °F 55.6 °F 29.84 in Calm     96 % 0.00 in 0.0 W/m2 OVC
23:04 56.7 °F 55.6 °F 29.84 in Calm     96 % 0.00 in 0.0 W/m2 OVC
23:09 56.7 °F 55.6 °F 29.83 in Calm     96 % 0.00 in 0.0 W/m2 OVC
23:14 56.7 °F 55.6 °F 29.83 in Calm     96 % 0.00 in 0.0 W/m2 OVC
23:19 56.7 °F 55.6 °F 29.84 in Calm     96 % 0.00 in 0.0 W/m2 OVC
23:24 56.8 °F 55.7 °F 29.83 in Calm     96 % 0.00 in 0.0 W/m2 OVC
23:29 56.9 °F 55.8 °F 29.84 in Calm     96 % 0.00 in 0.0 W/m2 OVC
23:34 56.9 °F 55.8 °F 29.84 in Calm     96 % 0.00 in 0.0 W/m2 OVC
23:39 57.0 °F 55.9 °F 29.83 in Calm     96 % 0.00 in 0.0 W/m2 OVC
23:44 57.0 °F 55.9 °F 29.83 in Calm     96 % 0.00 in 0.0 W/m2 OVC
23:49 57.1 °F 56.0 °F 29.83 in Calm     96 % 0.00 in 0.0 W/m2 OVC
23:54 57.1 °F 56.0 °F 29.83 in Calm     96 % 0.00 in 0.0 W/m2 OVC
23:59 57.1 °F 56.0 °F 29.83 in Calm     96 % 0.00 in 0.0 W/m2 OVC
Bourbonnais, Illinois, USA
Compliments of Weather Underground - 3.5 mb